sensor_id;sensor_type;location;lat;lon;timestamp;noise_LAeq;noise_LA_min;noise_LA_max;noise_LA01;noise_LA95
72415;Laerm;60995;52.154;4.498;2023-12-04T00:02:10;48.39;41.93;58.19;;
72415;Laerm;60995;52.154;4.498;2023-12-04T00:04:27;48.68;42.16;61.64;;
72415;Laerm;60995;52.154;4.498;2023-12-04T00:06:43;51.21;44.95;70.21;;
72415;Laerm;60995;52.154;4.498;2023-12-04T00:08:59;51.66;45.30;68.28;;
72415;Laerm;60995;52.154;4.498;2023-12-04T00:11:15;51.06;45.08;68.65;;
72415;Laerm;60995;52.154;4.498;2023-12-04T00:13:31;51.88;45.64;76.22;;
72415;Laerm;60995;52.154;4.498;2023-12-04T00:15:48;52.20;45.41;69.63;;
72415;Laerm;60995;52.154;4.498;2023-12-04T00:18:04;49.28;43.96;63.25;;
72415;Laerm;60995;52.154;4.498;2023-12-04T00:20:20;49.12;43.49;64.02;;
72415;Laerm;60995;52.154;4.498;2023-12-04T00:22:38;48.98;43.30;64.61;;
72415;Laerm;60995;52.154;4.498;2023-12-04T00:24:54;49.25;43.06;60.25;;
72415;Laerm;60995;52.154;4.498;2023-12-04T00:27:10;47.59;42.22;59.47;;
72415;Laerm;60995;52.154;4.498;2023-12-04T00:29:27;47.50;42.57;59.96;;
72415;Laerm;60995;52.154;4.498;2023-12-04T00:31:43;46.56;41.13;58.13;;
72415;Laerm;60995;52.154;4.498;2023-12-04T00:33:59;46.96;41.89;61.39;;
72415;Laerm;60995;52.154;4.498;2023-12-04T00:36:16;45.42;40.81;59.86;;
72415;Laerm;60995;52.154;4.498;2023-12-04T00:38:32;46.72;40.96;55.17;;
72415;Laerm;60995;52.154;4.498;2023-12-04T00:40:48;47.50;42.40;58.30;;
72415;Laerm;60995;52.154;4.498;2023-12-04T00:43:04;47.25;41.94;60.37;;
72415;Laerm;60995;52.154;4.498;2023-12-04T00:45:21;48.78;42.05;64.33;;
72415;Laerm;60995;52.154;4.498;2023-12-04T00:47:37;48.60;41.96;64.64;;
72415;Laerm;60995;52.154;4.498;2023-12-04T00:49:53;46.43;41.02;59.26;;
72415;Laerm;60995;52.154;4.498;2023-12-04T00:52:09;45.35;39.51;58.94;;
72415;Laerm;60995;52.154;4.498;2023-12-04T00:54:26;46.37;40.59;57.05;;
72415;Laerm;60995;52.154;4.498;2023-12-04T00:56:42;47.13;40.55;59.75;;
72415;Laerm;60995;52.154;4.498;2023-12-04T00:58:58;45.07;39.90;60.77;;
72415;Laerm;60995;52.154;4.498;2023-12-04T01:01:15;46.01;40.12;56.08;;
72415;Laerm;60995;52.154;4.498;2023-12-04T01:03:31;45.88;40.67;56.98;;
72415;Laerm;60995;52.154;4.498;2023-12-04T01:05:49;45.14;39.26;56.44;;
72415;Laerm;60995;52.154;4.498;2023-12-04T01:08:05;45.91;39.45;55.85;;
72415;Laerm;60995;52.154;4.498;2023-12-04T01:10:21;46.04;40.68;55.48;;
72415;Laerm;60995;52.154;4.498;2023-12-04T01:12:37;44.79;39.04;58.52;;
72415;Laerm;60995;52.154;4.498;2023-12-04T01:14:54;45.50;39.97;56.50;;
72415;Laerm;60995;52.154;4.498;2023-12-04T01:17:10;46.87;38.91;58.04;;
72415;Laerm;60995;52.154;4.498;2023-12-04T01:19:26;45.90;40.69;58.53;;
72415;Laerm;60995;52.154;4.498;2023-12-04T01:21:42;45.16;39.25;59.70;;
72415;Laerm;60995;52.154;4.498;2023-12-04T01:23:59;45.58;39.16;58.24;;
72415;Laerm;60995;52.154;4.498;2023-12-04T01:26:15;47.25;40.81;60.95;;
72415;Laerm;60995;52.154;4.498;2023-12-04T01:28:31;47.09;40.38;64.09;;
72415;Laerm;60995;52.154;4.498;2023-12-04T01:30:47;48.84;42.45;64.26;;
72415;Laerm;60995;52.154;4.498;2023-12-04T01:33:04;46.60;40.77;61.76;;
72415;Laerm;60995;52.154;4.498;2023-12-04T01:35:20;45.94;39.52;55.88;;
72415;Laerm;60995;52.154;4.498;2023-12-04T01:37:37;46.22;39.86;60.10;;
72415;Laerm;60995;52.154;4.498;2023-12-04T01:39:54;47.06;40.01;55.83;;
72415;Laerm;60995;52.154;4.498;2023-12-04T01:42:10;46.65;40.57;58.49;;
72415;Laerm;60995;52.154;4.498;2023-12-04T01:44:27;46.13;41.01;59.27;;
72415;Laerm;60995;52.154;4.498;2023-12-04T01:46:43;45.81;40.79;54.19;;
72415;Laerm;60995;52.154;4.498;2023-12-04T01:49:00;46.54;41.41;58.35;;
72415;Laerm;60995;52.154;4.498;2023-12-04T01:51:20;45.94;40.60;59.84;;
72415;Laerm;60995;52.154;4.498;2023-12-04T01:53:39;46.27;41.23;54.81;;
72415;Laerm;60995;52.154;4.498;2023-12-04T01:55:56;46.86;40.50;57.91;;
72415;Laerm;60995;52.154;4.498;2023-12-04T01:58:13;46.48;39.86;60.26;;
72415;Laerm;60995;52.154;4.498;2023-12-04T02:00:31;45.62;39.22;57.57;;
72415;Laerm;60995;52.154;4.498;2023-12-04T02:02:47;46.24;40.05;58.69;;
72415;Laerm;60995;52.154;4.498;2023-12-04T02:05:07;46.01;40.51;55.28;;
72415;Laerm;60995;52.154;4.498;2023-12-04T02:07:24;47.09;41.30;59.05;;
72415;Laerm;60995;52.154;4.498;2023-12-04T02:09:40;47.38;40.96;59.74;;
72415;Laerm;60995;52.154;4.498;2023-12-04T02:11:57;46.64;41.31;55.83;;
72415;Laerm;60995;52.154;4.498;2023-12-04T02:14:14;47.76;41.45;57.28;;
72415;Laerm;60995;52.154;4.498;2023-12-04T02:16:37;48.02;42.14;58.69;;
72415;Laerm;60995;52.154;4.498;2023-12-04T02:18:54;46.57;41.40;59.24;;
72415;Laerm;60995;52.154;4.498;2023-12-04T02:21:11;45.25;40.33;52.95;;
72415;Laerm;60995;52.154;4.498;2023-12-04T02:23:27;47.84;41.18;57.89;;
72415;Laerm;60995;52.154;4.498;2023-12-04T02:25:44;47.37;41.03;58.53;;
72415;Laerm;60995;52.154;4.498;2023-12-04T02:28:05;47.47;41.97;58.59;;
72415;Laerm;60995;52.154;4.498;2023-12-04T02:30:24;46.80;41.37;58.83;;
72415;Laerm;60995;52.154;4.498;2023-12-04T02:32:47;46.89;40.82;59.89;;
72415;Laerm;60995;52.154;4.498;2023-12-04T02:35:06;48.78;41.84;61.05;;
72415;Laerm;60995;52.154;4.498;2023-12-04T02:37:25;45.97;41.16;61.45;;
72415;Laerm;60995;52.154;4.498;2023-12-04T02:39:43;47.37;41.71;70.07;;
72415;Laerm;60995;52.154;4.498;2023-12-04T02:41:59;47.15;41.13;59.98;;
72415;Laerm;60995;52.154;4.498;2023-12-04T02:44:16;47.45;42.33;56.55;;
72415;Laerm;60995;52.154;4.498;2023-12-04T02:46:32;48.74;41.62;57.92;;
72415;Laerm;60995;52.154;4.498;2023-12-04T02:48:48;46.73;40.72;55.64;;
72415;Laerm;60995;52.154;4.498;2023-12-04T02:51:05;49.54;41.74;74.68;;
72415;Laerm;60995;52.154;4.498;2023-12-04T02:53:22;50.23;43.93;58.31;;
72415;Laerm;60995;52.154;4.498;2023-12-04T02:55:38;47.67;41.60;55.22;;
72415;Laerm;60995;52.154;4.498;2023-12-04T02:57:54;46.90;40.94;56.52;;
72415;Laerm;60995;52.154;4.498;2023-12-04T03:00:11;46.21;41.35;57.78;;
72415;Laerm;60995;52.154;4.498;2023-12-04T03:02:27;50.21;43.54;69.73;;
72415;Laerm;60995;52.154;4.498;2023-12-04T03:04:44;48.09;42.13;56.76;;
72415;Laerm;60995;52.154;4.498;2023-12-04T03:07:01;47.38;42.62;55.80;;
72415;Laerm;60995;52.154;4.498;2023-12-04T03:09:17;47.76;42.14;56.80;;
72415;Laerm;60995;52.154;4.498;2023-12-04T03:11:33;49.79;41.83;56.24;;
72415;Laerm;60995;52.154;4.498;2023-12-04T03:13:49;49.04;43.13;56.24;;
72415;Laerm;60995;52.154;4.498;2023-12-04T03:16:14;49.67;43.15;62.73;;
72415;Laerm;60995;52.154;4.498;2023-12-04T03:18:30;47.52;42.38;57.68;;
72415;Laerm;60995;52.154;4.498;2023-12-04T03:20:46;49.12;42.37;56.89;;
72415;Laerm;60995;52.154;4.498;2023-12-04T03:23:03;50.47;43.92;58.86;;
72415;Laerm;60995;52.154;4.498;2023-12-04T03:25:19;48.70;43.26;60.11;;
72415;Laerm;60995;52.154;4.498;2023-12-04T03:27:35;49.50;44.10;57.99;;
72415;Laerm;60995;52.154;4.498;2023-12-04T03:29:52;49.85;43.05;59.38;;
72415;Laerm;60995;52.154;4.498;2023-12-04T03:32:08;51.69;47.00;58.73;;
72415;Laerm;60995;52.154;4.498;2023-12-04T03:34:27;50.65;44.17;60.68;;
72415;Laerm;60995;52.154;4.498;2023-12-04T03:36:43;49.17;42.39;66.51;;
72415;Laerm;60995;52.154;4.498;2023-12-04T03:39:00;49.46;43.38;57.27;;
72415;Laerm;60995;52.154;4.498;2023-12-04T03:41:16;51.63;45.17;60.59;;
72415;Laerm;60995;52.154;4.498;2023-12-04T03:43:32;50.69;44.36;59.18;;
72415;Laerm;60995;52.154;4.498;2023-12-04T03:45:49;50.67;44.67;63.60;;
72415;Laerm;60995;52.154;4.498;2023-12-04T03:48:05;50.86;44.83;59.65;;
72415;Laerm;60995;52.154;4.498;2023-12-04T03:50:21;49.89;45.09;56.55;;
72415;Laerm;60995;52.154;4.498;2023-12-04T03:52:37;51.08;45.38;58.22;;
72415;Laerm;60995;52.154;4.498;2023-12-04T03:54:54;51.08;45.32;58.12;;
72415;Laerm;60995;52.154;4.498;2023-12-04T03:57:10;50.99;45.95;60.27;;
72415;Laerm;60995;52.154;4.498;2023-12-04T03:59:26;51.15;44.93;63.48;;
72415;Laerm;60995;52.154;4.498;2023-12-04T04:01:42;51.02;45.67;57.54;;
72415;Laerm;60995;52.154;4.498;2023-12-04T04:03:59;50.54;45.56;60.31;;
72415;Laerm;60995;52.154;4.498;2023-12-04T04:06:15;51.44;45.41;63.41;;
72415;Laerm;60995;52.154;4.498;2023-12-04T04:08:31;51.32;45.38;58.18;;
72415;Laerm;60995;52.154;4.498;2023-12-04T04:10:47;51.56;46.40;59.10;;
72415;Laerm;60995;52.154;4.498;2023-12-04T04:13:03;50.91;46.09;60.45;;
72415;Laerm;60995;52.154;4.498;2023-12-04T04:15:20;51.43;45.96;60.15;;
72415;Laerm;60995;52.154;4.498;2023-12-04T04:17:36;51.29;46.34;58.15;;
72415;Laerm;60995;52.154;4.498;2023-12-04T04:19:53;52.05;47.76;59.49;;
72415;Laerm;60995;52.154;4.498;2023-12-04T04:22:10;52.83;47.41;60.88;;
72415;Laerm;60995;52.154;4.498;2023-12-04T04:24:26;53.10;47.30;68.78;;
72415;Laerm;60995;52.154;4.498;2023-12-04T04:26:42;52.77;48.30;60.66;;
72415;Laerm;60995;52.154;4.498;2023-12-04T04:28:59;52.74;48.05;58.70;;
72415;Laerm;60995;52.154;4.498;2023-12-04T04:31:15;53.18;48.97;59.03;;
72415;Laerm;60995;52.154;4.498;2023-12-04T04:33:31;52.90;47.40;58.64;;
72415;Laerm;60995;52.154;4.498;2023-12-04T04:35:47;53.18;47.56;58.93;;
72415;Laerm;60995;52.154;4.498;2023-12-04T04:38:04;54.89;49.13;61.67;;
72415;Laerm;60995;52.154;4.498;2023-12-04T04:40:20;54.80;48.60;61.43;;
72415;Laerm;60995;52.154;4.498;2023-12-04T04:42:36;55.07;49.08;60.25;;
72415;Laerm;60995;52.154;4.498;2023-12-04T04:44:52;54.31;48.08;63.62;;
72415;Laerm;60995;52.154;4.498;2023-12-04T04:47:09;54.30;49.41;60.26;;
72415;Laerm;60995;52.154;4.498;2023-12-04T04:49:25;53.87;48.42;65.37;;
72415;Laerm;60995;52.154;4.498;2023-12-04T04:51:41;55.23;49.17;64.63;;
72415;Laerm;60995;52.154;4.498;2023-12-04T04:53:58;55.26;50.19;62.99;;
72415;Laerm;60995;52.154;4.498;2023-12-04T04:56:15;54.98;49.41;60.34;;
72415;Laerm;60995;52.154;4.498;2023-12-04T04:58:31;54.47;49.29;59.41;;
72415;Laerm;60995;52.154;4.498;2023-12-04T05:00:47;55.17;49.94;64.88;;
72415;Laerm;60995;52.154;4.498;2023-12-04T05:03:03;55.08;49.80;63.84;;
72415;Laerm;60995;52.154;4.498;2023-12-04T05:05:20;55.21;50.21;60.90;;
72415;Laerm;60995;52.154;4.498;2023-12-04T05:07:36;55.00;49.46;60.79;;
72415;Laerm;60995;52.154;4.498;2023-12-04T05:09:52;54.09;49.54;58.87;;
72415;Laerm;60995;52.154;4.498;2023-12-04T05:12:08;54.97;49.21;59.91;;
72415;Laerm;60995;52.154;4.498;2023-12-04T05:14:25;54.79;50.68;60.60;;
72415;Laerm;60995;52.154;4.498;2023-12-04T05:16:43;54.86;49.81;61.61;;
72415;Laerm;60995;52.154;4.498;2023-12-04T05:18:59;54.38;49.55;63.27;;
72415;Laerm;60995;52.154;4.498;2023-12-04T05:21:15;54.87;49.93;59.58;;
72415;Laerm;60995;52.154;4.498;2023-12-04T05:23:31;55.30;50.26;66.03;;
72415;Laerm;60995;52.154;4.498;2023-12-04T05:25:47;54.68;50.32;59.98;;
72415;Laerm;60995;52.154;4.498;2023-12-04T05:28:04;55.30;50.66;61.44;;
72415;Laerm;60995;52.154;4.498;2023-12-04T05:30:20;55.18;50.68;60.33;;
72415;Laerm;60995;52.154;4.498;2023-12-04T05:32:36;54.35;49.34;59.63;;
72415;Laerm;60995;52.154;4.498;2023-12-04T05:34:53;55.34;50.08;60.56;;
72415;Laerm;60995;52.154;4.498;2023-12-04T05:37:09;55.51;49.30;59.83;;
72415;Laerm;60995;52.154;4.498;2023-12-04T05:39:25;55.50;50.75;60.23;;
72415;Laerm;60995;52.154;4.498;2023-12-04T05:41:41;55.32;50.62;60.83;;
72415;Laerm;60995;52.154;4.498;2023-12-04T05:43:58;54.98;49.90;65.47;;
72415;Laerm;60995;52.154;4.498;2023-12-04T05:46:14;55.57;50.43;61.81;;
72415;Laerm;60995;52.154;4.498;2023-12-04T05:48:30;55.44;49.72;67.17;;
72415;Laerm;60995;52.154;4.498;2023-12-04T05:50:46;56.14;51.10;61.44;;
72415;Laerm;60995;52.154;4.498;2023-12-04T05:53:03;55.45;50.95;69.65;;
72415;Laerm;60995;52.154;4.498;2023-12-04T05:55:19;54.94;50.24;59.14;;
72415;Laerm;60995;52.154;4.498;2023-12-04T05:57:39;55.27;50.17;68.39;;
72415;Laerm;60995;52.154;4.498;2023-12-04T05:59:55;54.71;50.16;60.24;;
72415;Laerm;60995;52.154;4.498;2023-12-04T06:02:11;55.32;50.10;62.09;;
72415;Laerm;60995;52.154;4.498;2023-12-04T06:04:28;55.65;50.86;61.15;;
72415;Laerm;60995;52.154;4.498;2023-12-04T06:06:45;54.48;49.34;63.54;;
72415;Laerm;60995;52.154;4.498;2023-12-04T06:09:01;55.04;50.50;61.19;;
72415;Laerm;60995;52.154;4.498;2023-12-04T06:11:17;55.27;50.44;62.02;;
72415;Laerm;60995;52.154;4.498;2023-12-04T06:13:33;55.58;50.23;63.26;;
72415;Laerm;60995;52.154;4.498;2023-12-04T06:15:50;55.40;51.26;60.33;;
72415;Laerm;60995;52.154;4.498;2023-12-04T06:18:06;55.27;49.95;60.24;;
72415;Laerm;60995;52.154;4.498;2023-12-04T06:20:22;55.43;50.60;61.27;;
72415;Laerm;60995;52.154;4.498;2023-12-04T06:22:39;55.15;50.67;62.80;;
72415;Laerm;60995;52.154;4.498;2023-12-04T06:24:55;54.33;50.07;59.39;;
72415;Laerm;60995;52.154;4.498;2023-12-04T06:27:16;55.42;49.95;60.84;;
72415;Laerm;60995;52.154;4.498;2023-12-04T06:29:33;55.07;50.14;59.48;;
72415;Laerm;60995;52.154;4.498;2023-12-04T06:31:50;55.23;49.33;61.41;;
72415;Laerm;60995;52.154;4.498;2023-12-04T06:34:07;54.68;50.30;58.69;;
72415;Laerm;60995;52.154;4.498;2023-12-04T06:36:25;54.74;49.74;62.99;;
72415;Laerm;60995;52.154;4.498;2023-12-04T06:38:47;54.35;49.82;60.44;;
72415;Laerm;60995;52.154;4.498;2023-12-04T06:41:05;55.19;50.09;68.77;;
72415;Laerm;60995;52.154;4.498;2023-12-04T06:43:21;55.02;49.91;63.76;;
72415;Laerm;60995;52.154;4.498;2023-12-04T06:45:38;54.63;48.54;62.52;;
72415;Laerm;60995;52.154;4.498;2023-12-04T06:47:56;58.03;50.28;74.64;;
72415;Laerm;60995;52.154;4.498;2023-12-04T06:50:13;54.83;50.33;63.16;;
72415;Laerm;60995;52.154;4.498;2023-12-04T06:52:29;56.43;49.78;68.88;;
72415;Laerm;60995;52.154;4.498;2023-12-04T06:54:45;55.43;50.87;60.29;;
72415;Laerm;60995;52.154;4.498;2023-12-04T06:57:01;55.50;49.79;60.86;;
72415;Laerm;60995;52.154;4.498;2023-12-04T06:59:18;55.95;50.55;65.00;;
72415;Laerm;60995;52.154;4.498;2023-12-04T07:01:35;55.18;50.07;60.77;;
72415;Laerm;60995;52.154;4.498;2023-12-04T07:03:51;55.98;50.69;65.05;;
72415;Laerm;60995;52.154;4.498;2023-12-04T07:06:08;55.07;51.09;61.61;;
72415;Laerm;60995;52.154;4.498;2023-12-04T07:08:25;54.91;50.29;64.78;;
72415;Laerm;60995;52.154;4.498;2023-12-04T07:10:41;54.75;50.08;68.61;;
72415;Laerm;60995;52.154;4.498;2023-12-04T07:12:58;54.30;49.48;59.78;;
72415;Laerm;60995;52.154;4.498;2023-12-04T07:15:14;55.44;50.59;64.33;;
72415;Laerm;60995;52.154;4.498;2023-12-04T07:17:31;55.16;50.15;62.16;;
72415;Laerm;60995;52.154;4.498;2023-12-04T07:19:47;55.76;51.22;66.66;;
72415;Laerm;60995;52.154;4.498;2023-12-04T07:22:04;55.81;50.59;61.38;;
72415;Laerm;60995;52.154;4.498;2023-12-04T07:24:20;55.74;50.14;60.34;;
72415;Laerm;60995;52.154;4.498;2023-12-04T07:26:39;55.60;50.93;60.34;;
72415;Laerm;60995;52.154;4.498;2023-12-04T07:28:55;55.84;51.55;62.54;;
72415;Laerm;60995;52.154;4.498;2023-12-04T07:31:11;55.48;50.49;62.72;;
72415;Laerm;60995;52.154;4.498;2023-12-04T07:33:27;56.14;51.69;68.33;;
72415;Laerm;60995;52.154;4.498;2023-12-04T07:35:44;56.28;51.18;69.17;;
72415;Laerm;60995;52.154;4.498;2023-12-04T07:38:01;55.90;50.27;66.28;;
72415;Laerm;60995;52.154;4.498;2023-12-04T07:40:17;56.64;51.18;61.66;;
72415;Laerm;60995;52.154;4.498;2023-12-04T07:42:33;57.58;52.89;72.58;;
72415;Laerm;60995;52.154;4.498;2023-12-04T07:44:50;57.33;52.35;64.35;;
72415;Laerm;60995;52.154;4.498;2023-12-04T07:47:06;56.89;52.76;63.77;;
72415;Laerm;60995;52.154;4.498;2023-12-04T07:49:22;56.81;52.45;63.74;;
72415;Laerm;60995;52.154;4.498;2023-12-04T07:51:38;56.74;52.01;66.04;;
72415;Laerm;60995;52.154;4.498;2023-12-04T07:53:54;57.38;52.14;63.84;;
72415;Laerm;60995;52.154;4.498;2023-12-04T07:56:12;56.27;51.92;60.32;;
72415;Laerm;60995;52.154;4.498;2023-12-04T07:58:28;55.67;50.69;60.14;;
72415;Laerm;60995;52.154;4.498;2023-12-04T08:00:44;57.29;51.99;71.73;;
72415;Laerm;60995;52.154;4.498;2023-12-04T08:03:01;56.10;51.09;64.21;;
72415;Laerm;60995;52.154;4.498;2023-12-04T08:05:17;56.27;51.31;62.86;;
72415;Laerm;60995;52.154;4.498;2023-12-04T08:07:33;55.31;49.87;60.92;;
72415;Laerm;60995;52.154;4.498;2023-12-04T08:09:50;55.73;50.18;62.42;;
72415;Laerm;60995;52.154;4.498;2023-12-04T08:12:07;56.68;51.03;80.22;;
72415;Laerm;60995;52.154;4.498;2023-12-04T08:14:24;54.80;50.38;62.03;;
72415;Laerm;60995;52.154;4.498;2023-12-04T08:16:40;55.37;51.24;61.82;;
72415;Laerm;60995;52.154;4.498;2023-12-04T08:18:57;57.72;48.76;72.33;;
72415;Laerm;60995;52.154;4.498;2023-12-04T08:21:13;59.74;50.85;72.25;;
72415;Laerm;60995;52.154;4.498;2023-12-04T08:23:29;55.39;50.88;65.54;;
72415;Laerm;60995;52.154;4.498;2023-12-04T08:25:45;55.54;50.42;61.42;;
72415;Laerm;60995;52.154;4.498;2023-12-04T08:28:02;58.15;51.00;72.76;;
72415;Laerm;60995;52.154;4.498;2023-12-04T08:30:18;56.20;51.29;63.31;;
72415;Laerm;60995;52.154;4.498;2023-12-04T08:32:34;56.43;50.92;67.65;;
72415;Laerm;60995;52.154;4.498;2023-12-04T08:34:51;56.14;51.15;71.08;;
72415;Laerm;60995;52.154;4.498;2023-12-04T08:37:07;55.18;50.68;59.73;;
72415;Laerm;60995;52.154;4.498;2023-12-04T08:39:23;56.21;50.17;76.07;;
72415;Laerm;60995;52.154;4.498;2023-12-04T08:41:40;56.01;50.24;72.90;;
72415;Laerm;60995;52.154;4.498;2023-12-04T08:43:56;55.05;50.58;59.79;;
72415;Laerm;60995;52.154;4.498;2023-12-04T08:46:13;55.17;50.18;71.05;;
72415;Laerm;60995;52.154;4.498;2023-12-04T08:48:30;55.48;50.75;59.79;;
72415;Laerm;60995;52.154;4.498;2023-12-04T08:50:47;54.32;49.99;67.41;;
72415;Laerm;60995;52.154;4.498;2023-12-04T08:53:04;55.44;50.00;76.09;;
72415;Laerm;60995;52.154;4.498;2023-12-04T08:55:20;54.45;49.23;60.15;;
72415;Laerm;60995;52.154;4.498;2023-12-04T08:57:37;55.01;49.29;61.47;;
72415;Laerm;60995;52.154;4.498;2023-12-04T08:59:53;55.16;50.45;61.67;;
72415;Laerm;60995;52.154;4.498;2023-12-04T09:02:09;55.43;51.00;61.70;;
72415;Laerm;60995;52.154;4.498;2023-12-04T09:04:26;57.01;52.11;74.30;;
72415;Laerm;60995;52.154;4.498;2023-12-04T09:06:42;56.59;51.63;69.06;;
72415;Laerm;60995;52.154;4.498;2023-12-04T09:08:58;56.49;51.01;74.46;;
72415;Laerm;60995;52.154;4.498;2023-12-04T09:11:15;55.88;51.04;65.17;;
72415;Laerm;60995;52.154;4.498;2023-12-04T09:13:31;55.93;49.55;66.47;;
72415;Laerm;60995;52.154;4.498;2023-12-04T09:15:48;55.47;51.08;64.50;;
72415;Laerm;60995;52.154;4.498;2023-12-04T09:18:05;55.91;51.49;72.45;;
72415;Laerm;60995;52.154;4.498;2023-12-04T09:20:21;56.00;50.88;67.57;;
72415;Laerm;60995;52.154;4.498;2023-12-04T09:22:37;56.64;51.78;65.86;;
72415;Laerm;60995;52.154;4.498;2023-12-04T09:24:55;56.58;51.71;67.01;;
72415;Laerm;60995;52.154;4.498;2023-12-04T09:27:11;56.89;51.05;72.62;;
72415;Laerm;60995;52.154;4.498;2023-12-04T09:29:27;55.47;51.02;60.58;;
72415;Laerm;60995;52.154;4.498;2023-12-04T09:31:43;55.74;50.44;62.50;;
72415;Laerm;60995;52.154;4.498;2023-12-04T09:34:00;56.12;51.50;61.08;;
72415;Laerm;60995;52.154;4.498;2023-12-04T09:36:16;56.08;51.10;64.56;;
72415;Laerm;60995;52.154;4.498;2023-12-04T09:38:34;55.29;49.90;60.40;;
72415;Laerm;60995;52.154;4.498;2023-12-04T09:40:52;55.97;50.05;61.59;;
72415;Laerm;60995;52.154;4.498;2023-12-04T09:43:09;55.01;49.79;63.11;;
72415;Laerm;60995;52.154;4.498;2023-12-04T09:45:28;56.27;50.84;73.67;;
72415;Laerm;60995;52.154;4.498;2023-12-04T09:47:47;54.96;49.85;61.58;;
72415;Laerm;60995;52.154;4.498;2023-12-04T09:50:05;55.62;50.31;62.09;;
72415;Laerm;60995;52.154;4.498;2023-12-04T09:52:22;55.78;50.86;67.85;;
72415;Laerm;60995;52.154;4.498;2023-12-04T09:54:40;56.17;51.37;63.48;;
72415;Laerm;60995;52.154;4.498;2023-12-04T09:56:57;56.19;50.21;65.25;;
72415;Laerm;60995;52.154;4.498;2023-12-04T09:59:15;56.03;50.59;65.35;;
72415;Laerm;60995;52.154;4.498;2023-12-04T10:01:34;55.41;50.56;60.46;;
72415;Laerm;60995;52.154;4.498;2023-12-04T10:03:52;55.90;51.45;60.59;;
72415;Laerm;60995;52.154;4.498;2023-12-04T10:06:15;57.88;50.35;71.74;;
72415;Laerm;60995;52.154;4.498;2023-12-04T10:08:33;56.42;51.60;64.59;;
72415;Laerm;60995;52.154;4.498;2023-12-04T10:10:49;56.44;52.46;62.97;;
72415;Laerm;60995;52.154;4.498;2023-12-04T10:13:06;56.30;51.41;65.09;;
72415;Laerm;60995;52.154;4.498;2023-12-04T10:15:22;57.60;51.73;70.61;;
72415;Laerm;60995;52.154;4.498;2023-12-04T10:17:41;56.08;51.71;60.63;;
72415;Laerm;60995;52.154;4.498;2023-12-04T10:20:11;56.21;50.60;62.39;;
72415;Laerm;60995;52.154;4.498;2023-12-04T10:22:28;61.35;51.99;76.38;;
72415;Laerm;60995;52.154;4.498;2023-12-04T10:24:44;56.49;50.83;64.90;;
72415;Laerm;60995;52.154;4.498;2023-12-04T10:27:06;59.33;50.68;78.68;;
72415;Laerm;60995;52.154;4.498;2023-12-04T10:29:28;57.19;52.05;67.56;;
72415;Laerm;60995;52.154;4.498;2023-12-04T10:31:46;60.41;52.23;75.77;;
72415;Laerm;60995;52.154;4.498;2023-12-04T10:34:04;56.45;51.78;63.28;;
72415;Laerm;60995;52.154;4.498;2023-12-04T10:36:25;56.31;51.49;63.36;;
72415;Laerm;60995;52.154;4.498;2023-12-04T10:38:42;56.17;49.98;69.95;;
72415;Laerm;60995;52.154;4.498;2023-12-04T10:41:15;60.78;51.47;75.04;;
72415;Laerm;60995;52.154;4.498;2023-12-04T10:43:31;56.48;50.85;61.92;;
72415;Laerm;60995;52.154;4.498;2023-12-04T10:45:48;56.53;51.60;62.23;;
72415;Laerm;60995;52.154;4.498;2023-12-04T10:48:06;56.31;51.18;67.00;;
72415;Laerm;60995;52.154;4.498;2023-12-04T10:50:23;56.62;50.46;70.98;;
72415;Laerm;60995;52.154;4.498;2023-12-04T10:52:41;54.78;50.59;62.26;;
72415;Laerm;60995;52.154;4.498;2023-12-04T10:54:59;55.70;50.41;61.56;;
72415;Laerm;60995;52.154;4.498;2023-12-04T10:57:33;56.76;51.62;63.42;;
72415;Laerm;60995;52.154;4.498;2023-12-04T10:59:58;56.65;50.76;61.46;;
72415;Laerm;60995;52.154;4.498;2023-12-04T11:02:21;66.13;52.22;77.90;;
72415;Laerm;60995;52.154;4.498;2023-12-04T11:04:38;55.55;50.17;63.28;;
72415;Laerm;60995;52.154;4.498;2023-12-04T11:06:55;56.01;51.16;62.89;;
72415;Laerm;60995;52.154;4.498;2023-12-04T11:09:12;55.36;50.00;60.90;;
72415;Laerm;60995;52.154;4.498;2023-12-04T11:11:40;59.67;50.72;76.98;;
72415;Laerm;60995;52.154;4.498;2023-12-04T11:14:04;56.81;50.65;63.35;;
72415;Laerm;60995;52.154;4.498;2023-12-04T11:17:00;56.01;51.01;69.37;;
72415;Laerm;60995;52.154;4.498;2023-12-04T11:19:29;56.25;51.28;70.42;;
72415;Laerm;60995;52.154;4.498;2023-12-04T11:21:50;55.60;49.13;63.00;;
72415;Laerm;60995;52.154;4.498;2023-12-04T11:24:08;56.83;51.98;64.80;;
72415;Laerm;60995;52.154;4.498;2023-12-04T11:26:25;57.37;52.01;68.57;;
72415;Laerm;60995;52.154;4.498;2023-12-04T11:28:43;55.60;50.68;68.97;;
72415;Laerm;60995;52.154;4.498;2023-12-04T11:31:00;55.62;49.72;64.59;;
72415;Laerm;60995;52.154;4.498;2023-12-04T11:33:20;55.53;51.15;65.73;;
72415;Laerm;60995;52.154;4.498;2023-12-04T11:35:38;55.16;50.64;60.59;;
72415;Laerm;60995;52.154;4.498;2023-12-04T11:37:58;54.33;49.06;60.03;;
72415;Laerm;60995;52.154;4.498;2023-12-04T11:40:16;54.08;50.11;64.63;;
72415;Laerm;60995;52.154;4.498;2023-12-04T11:42:32;54.93;50.42;61.12;;
72415;Laerm;60995;52.154;4.498;2023-12-04T11:44:50;53.80;48.10;61.00;;
72415;Laerm;60995;52.154;4.498;2023-12-04T11:47:11;54.09;48.50;64.53;;
72415;Laerm;60995;52.154;4.498;2023-12-04T11:49:29;54.80;48.55;65.13;;
72415;Laerm;60995;52.154;4.498;2023-12-04T11:51:46;54.47;49.23;59.93;;
72415;Laerm;60995;52.154;4.498;2023-12-04T11:54:08;55.79;48.97;69.28;;
72415;Laerm;60995;52.154;4.498;2023-12-04T11:56:25;53.88;49.10;58.95;;
72415;Laerm;60995;52.154;4.498;2023-12-04T11:58:45;54.30;48.20;64.97;;
72415;Laerm;60995;52.154;4.498;2023-12-04T12:01:01;55.58;50.06;64.67;;
72415;Laerm;60995;52.154;4.498;2023-12-04T12:03:17;55.55;50.00;66.20;;
72415;Laerm;60995;52.154;4.498;2023-12-04T12:05:34;58.67;51.11;76.92;;
72415;Laerm;60995;52.154;4.498;2023-12-04T12:07:51;56.40;50.50;64.26;;
72415;Laerm;60995;52.154;4.498;2023-12-04T12:10:09;55.54;51.02;60.47;;
72415;Laerm;60995;52.154;4.498;2023-12-04T12:12:30;56.05;51.23;61.99;;
72415;Laerm;60995;52.154;4.498;2023-12-04T12:14:48;56.03;50.57;61.67;;
72415;Laerm;60995;52.154;4.498;2023-12-04T12:17:04;56.12;51.60;60.51;;
72415;Laerm;60995;52.154;4.498;2023-12-04T12:19:21;57.36;53.09;63.31;;
72415;Laerm;60995;52.154;4.498;2023-12-04T12:21:37;57.16;51.80;63.86;;
72415;Laerm;60995;52.154;4.498;2023-12-04T12:23:54;56.01;51.41;63.20;;
72415;Laerm;60995;52.154;4.498;2023-12-04T12:26:11;56.60;51.36;67.41;;
72415;Laerm;60995;52.154;4.498;2023-12-04T12:28:28;56.08;51.45;60.85;;
72415;Laerm;60995;52.154;4.498;2023-12-04T12:30:45;56.74;51.87;63.34;;
72415;Laerm;60995;52.154;4.498;2023-12-04T12:33:02;55.97;51.15;64.94;;
72415;Laerm;60995;52.154;4.498;2023-12-04T12:35:18;56.56;51.29;63.70;;
72415;Laerm;60995;52.154;4.498;2023-12-04T12:37:35;57.19;52.24;70.04;;
72415;Laerm;60995;52.154;4.498;2023-12-04T12:39:52;56.85;51.99;66.56;;
72415;Laerm;60995;52.154;4.498;2023-12-04T12:42:08;56.67;51.39;63.21;;
72415;Laerm;60995;52.154;4.498;2023-12-04T12:44:27;56.64;51.75;70.02;;
72415;Laerm;60995;52.154;4.498;2023-12-04T12:46:48;55.52;50.39;60.24;;
72415;Laerm;60995;52.154;4.498;2023-12-04T12:49:07;55.52;50.29;60.48;;